createdAt,value
2023-02-02T00:01:52.070Z,10.98
2023-02-02T00:04:29.316Z,12.15
2023-02-02T00:07:05.389Z,10.08
2023-02-02T00:09:38.535Z,10.05
2023-02-02T00:12:11.744Z,10.30
2023-02-02T00:14:44.772Z,12.73
2023-02-02T00:17:17.615Z,12.07
2023-02-02T00:19:50.892Z,11.43
2023-02-02T00:22:23.891Z,10.88
2023-02-02T00:24:57.078Z,11.75
2023-02-02T00:27:29.788Z,11.28
2023-02-02T00:30:02.740Z,10.55
2023-02-02T00:32:36.131Z,13.55
2023-02-02T00:35:10.327Z,11.90
2023-02-02T00:37:44.458Z,11.60
2023-02-02T00:40:18.181Z,11.35
2023-02-02T00:42:51.560Z,11.50
2023-02-02T00:45:26.505Z,12.50
2023-02-02T00:47:59.683Z,11.53
2023-02-02T00:50:33.322Z,11.10
2023-02-02T00:53:07.233Z,10.48
2023-02-02T00:55:40.253Z,11.20
2023-02-02T00:58:13.326Z,12.53
2023-02-02T01:00:46.289Z,11.57
2023-02-02T01:03:20.006Z,10.80
2023-02-02T01:05:53.044Z,11.65
2023-02-02T01:08:25.874Z,11.95
2023-02-02T01:11:03.570Z,12.20
2023-02-02T01:13:37.525Z,13.03
2023-02-02T01:16:10.563Z,13.20
2023-02-02T01:18:44.267Z,11.22
2023-02-02T01:21:17.366Z,12.75
2023-02-02T01:23:50.474Z,12.58
2023-02-02T01:26:23.494Z,13.17
2023-02-02T01:28:56.352Z,11.97
2023-02-02T01:31:29.654Z,13.33
2023-02-02T01:34:04.251Z,13.45
2023-02-02T01:36:37.354Z,10.48
2023-02-02T01:39:10.482Z,11.38
2023-02-02T01:41:44.008Z,12.18
2023-02-02T01:47:30.753Z,11.12
2023-02-02T01:50:03.809Z,12.33
2023-02-02T01:52:37.329Z,12.05
2023-02-02T01:55:13.079Z,11.03
2023-02-02T01:58:01.768Z,11.85
2023-02-02T02:00:34.832Z,12.63
2023-02-02T02:03:12.757Z,11.83
2023-02-02T02:05:53.387Z,11.60
2023-02-02T02:08:40.699Z,13.00
2023-02-02T02:11:14.018Z,12.90
2023-02-02T02:13:48.593Z,13.03
2023-02-02T02:16:55.011Z,11.63
2023-02-02T02:20:41.254Z,12.82
2023-02-02T02:23:48.660Z,13.83
2023-02-02T02:26:57.583Z,12.47
2023-02-02T02:29:54.712Z,11.60
2023-02-02T02:32:56.295Z,12.15
2023-02-02T02:35:33.945Z,11.28
2023-02-02T02:38:41.797Z,12.60
2023-02-02T02:41:22.536Z,12.15
2023-02-02T02:44:02.843Z,12.40
2023-02-02T02:46:36.947Z,12.58
2023-02-02T02:51:52.276Z,15.10
2023-02-02T02:54:39.959Z,15.75
2023-02-02T02:57:33.836Z,15.75
2023-02-02T03:00:33.099Z,14.93
2023-02-02T03:03:37.901Z,14.07
2023-02-02T03:09:01.741Z,13.25
2023-02-02T03:11:36.466Z,12.78
2023-02-02T03:14:10.104Z,12.65
2023-02-02T03:16:43.198Z,13.48
2023-02-02T03:19:16.797Z,13.32
2023-02-02T03:21:49.690Z,12.13
2023-02-02T03:24:22.925Z,12.55
2023-02-02T03:26:56.043Z,13.80
2023-02-02T03:29:29.665Z,13.50
2023-02-02T03:34:35.805Z,13.50
2023-02-02T03:37:09.062Z,12.20
2023-02-02T03:39:43.145Z,13.58
2023-02-02T03:42:16.161Z,13.13
2023-02-02T03:44:49.224Z,13.60
2023-02-02T03:47:22.144Z,13.25
2023-02-02T03:49:55.447Z,13.38
2023-02-02T03:52:28.827Z,13.05
2023-02-02T03:55:01.972Z,14.83
2023-02-02T03:57:34.826Z,13.22
2023-02-02T04:00:09.241Z,13.22
2023-02-02T04:02:45.148Z,13.83
2023-02-02T04:05:18.264Z,13.70
2023-02-02T04:07:51.477Z,13.43
2023-02-02T04:10:26.051Z,13.28
2023-02-02T04:12:59.248Z,13.08
2023-02-02T04:15:32.884Z,14.70
2023-02-02T04:18:05.922Z,16.07
2023-02-02T04:20:39.701Z,14.70
2023-02-02T04:23:12.626Z,14.87
2023-02-02T04:25:52.766Z,15.00
2023-02-02T04:28:26.528Z,12.93
2023-02-02T04:30:59.882Z,13.95
2023-02-02T04:33:35.545Z,13.18
2023-02-02T04:36:09.032Z,13.95
2023-02-02T04:38:43.620Z,12.90
2023-02-02T04:41:17.008Z,12.37
2023-02-02T04:43:50.081Z,13.20
2023-02-02T04:46:23.262Z,12.33
2023-02-02T04:48:56.272Z,14.40
2023-02-02T04:51:29.479Z,12.43
2023-02-02T04:54:02.451Z,12.78
2023-02-02T04:56:37.014Z,13.30
2023-02-02T04:59:10.218Z,13.37
2023-02-02T05:01:42.975Z,12.33
2023-02-02T05:04:16.076Z,12.70
2023-02-02T05:06:48.920Z,13.18
2023-02-02T05:09:22.203Z,13.08
2023-02-02T05:11:55.662Z,13.43
2023-02-02T05:14:29.545Z,14.38
2023-02-02T05:17:02.502Z,13.13
2023-02-02T05:19:35.578Z,14.50
2023-02-02T05:22:08.585Z,16.07
2023-02-02T05:24:41.667Z,16.77
2023-02-02T05:27:14.820Z,16.57
2023-02-02T05:29:49.293Z,15.60
2023-02-02T05:32:22.130Z,15.03
2023-02-02T05:34:56.567Z,14.58
2023-02-02T05:37:29.461Z,13.48
2023-02-02T05:40:02.628Z,14.50
2023-02-02T05:42:35.872Z,13.80
2023-02-02T05:45:09.898Z,14.10
2023-02-02T05:47:42.892Z,14.70
2023-02-02T05:50:16.550Z,13.35
2023-02-02T05:52:50.381Z,15.30
2023-02-02T05:55:23.904Z,15.10
2023-02-02T05:57:56.682Z,13.65
2023-02-02T06:00:29.650Z,14.47
2023-02-02T06:03:02.757Z,13.68
2023-02-02T06:05:36.612Z,14.70
2023-02-02T06:08:09.756Z,14.75
2023-02-02T06:10:49.591Z,12.90
2023-02-02T06:13:23.106Z,13.93
2023-02-02T06:18:28.881Z,13.60
2023-02-02T06:21:02.466Z,13.28
2023-02-02T06:23:36.088Z,13.05
2023-02-02T06:26:09.144Z,12.60
2023-02-02T06:28:43.718Z,12.60
2023-02-02T06:31:18.273Z,12.50
2023-02-02T06:33:57.421Z,12.35
2023-02-02T06:36:30.474Z,12.95
2023-02-02T06:39:04.816Z,14.40
2023-02-02T06:41:38.190Z,15.72
2023-02-02T06:44:11.250Z,13.83
2023-02-02T06:46:44.831Z,14.05
2023-02-02T06:49:17.559Z,14.50
2023-02-02T06:51:51.474Z,13.72
2023-02-02T06:54:24.352Z,12.28
2023-02-02T06:56:57.821Z,13.83
2023-02-02T06:59:30.638Z,13.93
2023-02-02T07:02:03.595Z,13.48
2023-02-02T07:04:36.717Z,12.50
2023-02-02T07:07:09.784Z,12.73
2023-02-02T07:09:42.971Z,12.43
2023-02-02T07:12:16.375Z,12.67
2023-02-02T07:14:49.678Z,12.50
2023-02-02T07:17:23.080Z,14.10
2023-02-02T07:19:55.956Z,13.95
2023-02-02T07:22:29.382Z,13.17
2023-02-02T07:25:02.467Z,11.90
2023-02-02T07:27:35.741Z,12.28
2023-02-02T07:30:10.401Z,11.70
2023-02-02T07:32:48.121Z,13.48
2023-02-02T07:35:21.745Z,12.15
2023-02-02T07:37:58.040Z,14.20
2023-02-02T07:40:30.799Z,11.70
2023-02-02T07:43:04.165Z,13.30
2023-02-02T07:45:38.249Z,13.18
2023-02-02T07:48:11.192Z,14.07
2023-02-02T07:50:45.267Z,13.43
2023-02-02T07:53:18.314Z,11.88
2023-02-02T07:55:51.148Z,14.63
2023-02-02T07:58:24.236Z,12.80
2023-02-02T08:00:58.946Z,10.10
2023-02-02T08:03:33.388Z,11.15
2023-02-02T08:06:18.687Z,11.63
2023-02-02T08:08:52.849Z,11.40
2023-02-02T08:11:26.974Z,11.55
2023-02-02T10:34:44.456Z,8.25
2023-02-02T10:37:24.653Z,7.50
2023-02-02T10:40:34.471Z,5.45
2023-02-02T10:43:48.559Z,4.58
2023-02-02T10:46:29.186Z,4.42
2023-02-02T10:49:38.373Z,4.00
2023-02-02T10:52:18.329Z,4.37
2023-02-02T10:55:18.938Z,4.53
2023-02-02T10:58:14.376Z,3.52
2023-02-02T11:00:58.351Z,3.27
2023-02-02T11:03:34.241Z,4.22
2023-02-02T11:06:26.715Z,4.30
2023-02-02T11:09:01.490Z,4.55
2023-02-02T11:11:45.696Z,4.37
2023-02-02T11:19:35.249Z,4.70
2023-02-02T11:22:09.907Z,4.20
2023-02-02T11:24:48.850Z,5.08
2023-02-02T11:27:42.781Z,4.37
2023-02-02T11:30:27.707Z,4.87
2023-02-02T11:33:01.353Z,4.58
2023-02-02T11:35:34.943Z,4.70
2023-02-02T11:38:17.942Z,4.80
2023-02-02T11:41:07.294Z,5.00
2023-02-02T11:43:56.951Z,4.67
2023-02-02T11:46:33.432Z,7.67
2023-02-02T11:49:19.993Z,7.55
2023-02-02T11:52:05.301Z,7.50
2023-02-02T11:54:39.720Z,6.37
2023-02-02T11:57:14.739Z,6.22
2023-02-02T11:59:49.080Z,6.40
2023-02-02T12:02:29.111Z,6.05
2023-02-02T12:05:24.699Z,5.80
2023-02-02T12:07:58.058Z,6.75
2023-02-02T12:10:48.000Z,6.22
2023-02-02T12:13:40.471Z,6.35
2023-02-02T12:16:38.738Z,6.92
2023-02-02T12:19:42.281Z,6.70
2023-02-02T12:22:44.245Z,5.95
2023-02-02T12:25:56.559Z,8.28
2023-02-02T12:29:06.067Z,7.83
2023-02-02T12:32:02.729Z,8.98
2023-02-02T12:35:01.560Z,10.65
2023-02-02T12:38:14.197Z,10.68
2023-02-02T12:41:14.286Z,16.10
2023-02-02T12:43:54.739Z,15.65
2023-02-02T12:46:34.839Z,14.35
2023-02-02T12:49:14.982Z,14.83
2023-02-02T12:52:19.597Z,13.38
2023-02-02T12:55:18.568Z,12.60
2023-02-02T12:57:55.153Z,10.50
2023-02-02T13:01:05.401Z,10.05
2023-02-02T13:04:02.874Z,10.30
2023-02-02T13:06:56.732Z,11.10
2023-02-02T13:09:50.191Z,10.72
2023-02-02T13:12:24.587Z,11.05
2023-02-02T13:15:05.002Z,10.63
2023-02-02T13:17:58.079Z,9.65
2023-02-02T13:20:49.495Z,11.85
2023-02-02T13:23:36.249Z,12.43
2023-02-02T13:26:21.683Z,10.65
2023-02-02T13:29:10.964Z,11.75
2023-02-02T13:31:54.815Z,10.48
2023-02-02T13:34:32.621Z,10.20
2023-02-02T13:37:10.275Z,9.58
2023-02-02T13:39:50.961Z,10.70
2023-02-02T13:42:36.528Z,11.20
2023-02-02T13:45:33.220Z,10.43
2023-02-02T13:48:20.386Z,10.03
2023-02-02T13:51:31.531Z,10.38
2023-02-02T13:54:58.404Z,10.80
2023-02-02T13:57:54.053Z,11.43
2023-02-02T14:00:32.732Z,11.28
2023-02-02T14:03:41.179Z,10.53
2023-02-02T14:06:17.155Z,11.22
2023-02-02T14:09:04.505Z,11.75
2023-02-02T14:11:41.931Z,11.15
2023-02-02T14:14:40.140Z,11.18
2023-02-02T14:17:26.507Z,11.90
2023-02-02T14:20:06.754Z,15.58
2023-02-02T14:22:50.999Z,25.60
2023-02-02T14:25:40.646Z,23.60
2023-02-02T14:28:16.690Z,19.05
2023-02-02T14:30:54.347Z,15.53
2023-02-02T14:33:32.554Z,17.60
2023-02-02T14:36:06.763Z,17.82
2023-02-02T14:38:59.242Z,16.25
2023-02-02T14:42:06.724Z,14.73
2023-02-02T14:45:01.570Z,13.68
2023-02-02T14:48:05.629Z,14.00
2023-02-02T14:50:52.321Z,14.23
2023-02-02T14:53:39.217Z,14.43
2023-02-02T14:56:16.155Z,13.43
2023-02-02T14:58:56.157Z,31.97
2023-02-02T15:01:35.097Z,26.20
2023-02-02T15:04:26.465Z,23.05
2023-02-02T15:07:21.668Z,20.75
2023-02-02T15:09:56.866Z,20.57
2023-02-02T15:12:50.527Z,19.62
2023-02-02T15:15:31.017Z,16.52
2023-02-02T15:18:19.800Z,16.85
2023-02-02T15:20:54.994Z,22.82
2023-02-02T15:23:43.290Z,22.60
2023-02-02T15:26:26.966Z,20.43
2023-02-02T15:29:18.823Z,18.12
2023-02-02T15:31:54.968Z,20.95
2023-02-02T15:34:44.157Z,19.50
2023-02-02T15:37:24.835Z,19.23
2023-02-02T15:40:00.487Z,18.75
2023-02-02T15:42:56.415Z,17.92
2023-02-02T15:45:46.349Z,17.70
2023-02-02T15:48:30.117Z,13.18
2023-02-02T15:51:17.907Z,12.63
2023-02-02T15:53:52.238Z,11.38
2023-02-02T15:56:32.928Z,11.73
2023-02-02T15:59:16.687Z,11.50
2023-02-02T16:01:56.601Z,10.33
2023-02-02T16:04:37.451Z,10.98
2023-02-02T16:07:20.311Z,10.60
2023-02-02T16:09:53.390Z,9.93
2023-02-02T16:12:26.714Z,10.20
2023-02-02T16:15:00.252Z,9.73
2023-02-02T16:17:36.084Z,9.05
2023-02-02T16:20:18.367Z,10.23
2023-02-02T16:22:51.886Z,9.90
2023-02-02T16:25:25.913Z,10.15
2023-02-02T16:28:01.262Z,9.83
2023-02-02T16:30:40.072Z,9.98
2023-02-02T16:33:40.705Z,10.95
2023-02-02T16:36:31.086Z,12.20
2023-02-02T16:39:04.388Z,13.32
2023-02-02T16:41:42.005Z,15.80
2023-02-02T16:44:57.208Z,15.90
2023-02-02T16:47:33.972Z,17.67
2023-02-02T16:50:28.923Z,16.95
2023-02-02T16:53:09.685Z,16.00
2023-02-02T16:55:50.986Z,15.50
2023-02-02T16:58:26.959Z,15.65
2023-02-02T17:01:15.591Z,14.00
2023-02-02T17:03:53.461Z,13.03
2023-02-02T17:06:46.244Z,12.78
2023-02-02T17:09:34.737Z,13.85
2023-02-02T17:12:32.716Z,12.58
2023-02-02T17:15:02.147Z,14.13
2023-02-02T17:17:35.931Z,14.23
2023-02-02T17:20:10.913Z,14.38
2023-02-02T17:22:49.084Z,13.53
2023-02-02T17:25:32.889Z,12.95
2023-02-02T17:28:09.107Z,14.03
2023-02-02T17:30:52.404Z,14.70
2023-02-02T17:33:25.463Z,14.03
2023-02-02T17:38:32.803Z,14.30
2023-02-02T17:43:38.182Z,15.08
2023-02-02T17:46:16.087Z,15.65
2023-02-02T17:48:50.164Z,16.25
2023-02-02T17:51:23.272Z,16.05
2023-02-02T17:53:58.137Z,16.90
2023-02-02T17:56:31.715Z,16.40
2023-02-02T17:59:04.656Z,14.43
2023-02-02T18:06:45.806Z,15.38
2023-02-02T18:09:19.716Z,14.68
2023-02-02T18:11:53.300Z,14.68
2023-02-02T18:14:26.163Z,15.90
2023-02-02T18:16:59.276Z,16.67
2023-02-02T18:19:33.999Z,16.97
2023-02-02T18:22:07.929Z,13.48
2023-02-02T18:24:41.847Z,16.67
2023-02-02T18:27:16.166Z,13.40
2023-02-02T18:29:49.712Z,13.32
2023-02-02T18:32:22.445Z,15.13
2023-02-02T18:34:56.318Z,23.90
2023-02-02T18:37:29.157Z,57.65
2023-02-02T18:40:02.036Z,16.15
2023-02-02T18:42:35.182Z,13.40
2023-02-02T18:45:09.444Z,9.83
2023-02-02T18:47:42.923Z,12.03
2023-02-02T18:50:16.021Z,11.80
2023-02-02T18:52:49.095Z,14.83
2023-02-02T18:55:23.123Z,15.45
2023-02-02T18:57:56.934Z,15.70
2023-02-02T19:00:30.092Z,11.93
2023-02-02T19:03:02.954Z,10.50
2023-02-02T19:05:53.861Z,12.05
2023-02-02T19:08:27.194Z,11.43
2023-02-02T19:11:01.954Z,9.68
2023-02-02T19:13:36.341Z,9.55
2023-02-02T19:16:26.047Z,8.23
2023-02-02T19:19:02.109Z,10.78
2023-02-02T19:21:35.363Z,10.93
2023-02-02T19:24:14.009Z,11.88
2023-02-02T19:26:51.582Z,10.30
2023-02-02T19:29:27.580Z,10.38
2023-02-02T19:32:08.668Z,10.30
2023-02-02T19:34:42.391Z,9.85
2023-02-02T19:37:23.858Z,10.05
2023-02-02T19:40:10.468Z,9.93
2023-02-02T19:42:49.016Z,9.68
2023-02-02T19:45:27.368Z,10.03
2023-02-02T19:48:04.322Z,9.53
2023-02-02T19:50:41.736Z,9.98
2023-02-02T19:53:21.794Z,8.08
2023-02-02T19:55:55.146Z,7.92
2023-02-02T19:58:32.757Z,7.65
2023-02-02T20:01:10.305Z,7.90
2023-02-02T20:03:45.554Z,7.03
2023-02-02T20:06:29.752Z,8.00
2023-02-02T20:09:05.077Z,9.20
2023-02-02T20:11:51.311Z,8.88
2023-02-02T20:14:33.064Z,9.60
2023-02-02T20:17:10.680Z,10.05
2023-02-02T20:19:44.650Z,10.68
2023-02-02T20:22:29.862Z,10.25
2023-02-02T20:25:09.501Z,12.82
2023-02-02T20:27:42.351Z,11.30
2023-02-02T20:30:30.503Z,11.08
2023-02-02T20:33:06.356Z,11.12
2023-02-02T20:35:43.592Z,11.15
2023-02-02T20:38:32.259Z,10.82
2023-02-02T20:41:06.552Z,11.50
2023-02-02T20:43:39.873Z,14.05
2023-02-02T20:46:13.544Z,15.08
2023-02-02T20:48:48.430Z,14.38
2023-02-02T20:51:21.243Z,15.38
2023-02-02T20:53:55.923Z,14.70
2023-02-02T20:56:28.983Z,13.10
2023-02-02T20:59:02.212Z,18.25
2023-02-02T21:01:35.357Z,18.60
2023-02-02T21:04:08.410Z,12.18
2023-02-02T21:06:43.197Z,12.45
2023-02-02T21:09:17.576Z,15.85
2023-02-02T21:14:22.676Z,14.93
2023-02-02T21:17:09.064Z,16.73
2023-02-02T21:19:30.251Z,17.87
2023-02-02T21:22:03.126Z,16.12
2023-02-02T21:24:36.443Z,14.60
2023-02-02T21:27:09.638Z,16.45
2023-02-02T21:29:42.863Z,14.95
2023-02-02T21:32:15.857Z,15.18
2023-02-02T21:34:50.335Z,14.95
2023-02-02T21:37:23.178Z,14.53
2023-02-02T21:39:59.960Z,16.62
2023-02-02T21:42:35.836Z,14.75
2023-02-02T21:45:35.062Z,17.07
2023-02-02T21:48:24.761Z,15.48
2023-02-02T21:50:59.588Z,16.93
2023-02-02T21:53:34.042Z,16.20
2023-02-02T21:56:09.931Z,16.90
2023-02-02T21:58:44.913Z,15.45
2023-02-02T22:01:41.284Z,15.75
2023-02-02T22:04:28.658Z,15.13
2023-02-02T22:07:16.447Z,15.70
2023-02-02T22:09:51.304Z,15.48
2023-02-02T22:12:27.954Z,11.12
2023-02-02T22:15:03.856Z,13.18
2023-02-02T22:17:42.244Z,10.03
2023-02-02T22:20:31.783Z,9.00
2023-02-02T22:23:05.956Z,11.68
2023-02-02T22:25:39.865Z,12.37
2023-02-02T22:28:32.772Z,11.97
2023-02-02T22:31:05.887Z,12.45
2023-02-02T22:33:39.280Z,11.50
2023-02-02T22:36:13.151Z,11.03
2023-02-02T22:38:46.141Z,10.38
2023-02-02T22:41:18.963Z,9.30
2023-02-02T22:43:51.900Z,10.00
2023-02-02T22:46:24.777Z,10.28
2023-02-02T22:48:57.708Z,9.88
2023-02-02T22:51:31.179Z,9.47
2023-02-02T22:54:04.221Z,9.30
2023-02-02T22:56:37.534Z,9.23
2023-02-02T22:59:11.251Z,9.48
2023-02-02T23:01:44.206Z,8.58
2023-02-02T23:04:17.338Z,9.73
2023-02-02T23:06:50.468Z,9.45
2023-02-02T23:09:23.448Z,10.38
2023-02-02T23:11:56.360Z,10.32
2023-02-02T23:14:29.380Z,10.65
2023-02-02T23:17:02.408Z,11.63
2023-02-02T23:19:35.350Z,10.25
2023-02-02T23:22:08.691Z,9.33
2023-02-02T23:24:42.266Z,7.90
2023-02-02T23:27:15.459Z,8.43
2023-02-02T23:29:48.243Z,6.90
2023-02-02T23:32:21.477Z,7.37
2023-02-02T23:34:54.798Z,7.10
2023-02-02T23:37:27.633Z,7.13
2023-02-02T23:40:00.833Z,8.03
2023-02-02T23:42:34.702Z,7.60
2023-02-02T23:45:09.435Z,6.20
2023-02-02T23:47:42.258Z,7.20
2023-02-02T23:50:15.954Z,6.53
2023-02-02T23:52:48.890Z,6.00
2023-02-02T23:55:22.669Z,6.83
2023-02-02T23:57:55.583Z,6.27
